Time;durP1;ratioP1;P1;durP2;ratioP2;P2;SDS_P1;SDS_P2;PMS_P1;PMS_P2;Temp;Humidity;BMP_temperature;BMP_pressure;BME280_temperature;BME280_humidity;BME280_pressure;Samples;Min_cycle;Max_cycle;Signal;HPM_P1;HPM_P2
2023/06/29 00:00:08;;;;;;;9.18;4.35;;;;;;;;;;5053920;28;20072;-79
2023/06/29 00:02:36;;;;;;;5.93;3.85;;;;;;;;;;5053044;28;20079;-79
2023/06/29 00:05:03;;;;;;;6.72;4.30;;;;;;;;;;5057557;28;20113;-79
2023/06/29 00:07:33;;;;;;;6.05;3.78;;;;;;;;;;5063068;28;20048;-78
2023/06/29 00:10:00;;;;;;;6.57;3.97;;;;;;;;;;5058535;28;20041;-80
2023/06/29 00:12:26;;;;;;;5.35;3.80;;;;;;;;;;5054863;28;20045;-80
2023/06/29 00:14:53;;;;;;;5.18;4.07;;;;;;;;;;5057632;28;20056;-78
2023/06/29 00:17:20;;;;;;;7.75;4.20;;;;;;;;;;5053969;28;20075;-78
2023/06/29 00:19:48;;;;;;;6.18;4.43;;;;;;;;;;5048535;28;20040;-79
2023/06/29 00:22:15;;;;;;;6.15;4.38;;;;;;;;;;5050150;28;20124;-79
2023/06/29 00:24:43;;;;;;;7.00;4.43;;;;;;;;;;5047521;28;20048;-79
2023/06/29 00:27:10;;;;;;;6.75;3.97;;;;;;;;;;5049125;28;20393;-80
2023/06/29 00:29:37;;;;;;;5.90;3.95;;;;;;;;;;5048899;28;20132;-79
2023/06/29 00:32:04;;;;;;;6.88;4.57;;;;;;;;;;5049764;28;20037;-79
2023/06/29 00:34:30;;;;;;;5.43;4.05;;;;;;;;;;5050218;28;20048;-79
2023/06/29 00:36:58;;;;;;;6.50;4.20;;;;;;;;;;5050294;28;20124;-79
2023/06/29 00:39:25;;;;;;;6.78;4.10;;;;;;;;;;5050454;28;20491;-79
2023/06/29 00:41:55;;;;;;;6.95;3.80;;;;;;;;;;5050818;28;20203;-79
2023/06/29 00:44:23;;;;;;;4.95;3.80;;;;;;;;;;5052932;28;20136;-79
2023/06/29 00:46:52;;;;;;;6.72;3.95;;;;;;;;;;5050687;28;20041;-80
2023/06/29 00:49:20;;;;;;;5.78;3.92;;;;;;;;;;5050343;28;20045;-78
2023/06/29 00:51:49;;;;;;;6.53;4.00;;;;;;;;;;5050760;28;20106;-80
2023/06/29 00:54:18;;;;;;;5.15;3.72;;;;;;;;;;5050821;28;20123;-80
2023/06/29 00:56:46;;;;;;;7.82;4.05;;;;;;;;;;5050067;28;20049;-79
2023/06/29 00:59:12;;;;;;;5.40;3.75;;;;;;;;;;5050013;28;20057;-79
2023/06/29 01:01:40;;;;;;;5.20;3.92;;;;;;;;;;5050710;28;20037;-78
2023/06/29 01:04:07;;;;;;;4.93;3.50;;;;;;;;;;5050057;28;20041;-79
2023/06/29 01:06:40;;;;;;;5.15;3.50;;;;;;;;;;5050193;28;20037;-80
2023/06/29 01:09:08;;;;;;;5.03;3.60;;;;;;;;;;5050774;28;20041;-80
2023/06/29 01:11:38;;;;;;;6.32;3.50;;;;;;;;;;5051227;28;20067;-79
2023/06/29 01:14:06;;;;;;;5.50;3.60;;;;;;;;;;5050849;28;20407;-79
2023/06/29 01:16:35;;;;;;;6.18;3.47;;;;;;;;;;5052134;28;20049;-79
2023/06/29 01:19:05;;;;;;;6.68;3.70;;;;;;;;;;5053043;28;20052;-79
2023/06/29 01:21:36;;;;;;;5.90;3.78;;;;;;;;;;5054569;28;20068;-80
2023/06/29 01:24:04;;;;;;;4.97;3.38;;;;;;;;;;5053792;28;20621;-80
2023/06/29 01:26:32;;;;;;;5.85;3.38;;;;;;;;;;5054370;28;20049;-79
2023/06/29 01:28:59;;;;;;;4.90;3.25;;;;;;;;;;5054573;28;20132;-80
2023/06/29 01:31:26;;;;;;;4.90;3.30;;;;;;;;;;5054294;28;20129;-79
2023/06/29 01:33:54;;;;;;;5.97;3.42;;;;;;;;;;5054348;28;20049;-79
2023/06/29 01:36:25;;;;;;;5.10;3.65;;;;;;;;;;5054205;28;20162;-80
2023/06/29 01:38:56;;;;;;;4.93;3.50;;;;;;;;;;5053695;28;20120;-79
2023/06/29 01:41:25;;;;;;;5.70;3.08;;;;;;;;;;5054603;28;20445;-79
2023/06/29 01:43:53;;;;;;;5.10;3.58;;;;;;;;;;5053829;28;20037;-79
2023/06/29 01:46:21;;;;;;;5.88;3.33;;;;;;;;;;5054304;28;20047;-80
2023/06/29 01:48:49;;;;;;;5.32;3.42;;;;;;;;;;5054990;28;20041;-79
2023/06/29 01:51:16;;;;;;;6.45;3.42;;;;;;;;;;5054972;28;20057;-79
2023/06/29 01:53:42;;;;;;;5.47;3.50;;;;;;;;;;5054088;28;20476;-79
2023/06/29 01:56:09;;;;;;;5.57;3.30;;;;;;;;;;5054163;28;20045;-79
2023/06/29 01:58:36;;;;;;;4.55;3.47;;;;;;;;;;5054613;28;20052;-79
2023/06/29 02:01:03;;;;;;;6.20;3.70;;;;;;;;;;5053927;28;20049;-79
2023/06/29 02:03:30;;;;;;;5.53;3.53;;;;;;;;;;5054215;28;20048;-79
2023/06/29 02:05:57;;;;;;;7.88;3.30;;;;;;;;;;5053514;28;20427;-79
2023/06/29 02:08:23;;;;;;;6.22;3.80;;;;;;;;;;5054281;28;20053;-78
2023/06/29 02:10:50;;;;;;;4.78;3.25;;;;;;;;;;5053907;28;20049;-79
2023/06/29 02:13:17;;;;;;;5.03;3.65;;;;;;;;;;5053626;28;20037;-79
2023/06/29 02:15:43;;;;;;;4.72;3.20;;;;;;;;;;5053913;28;20093;-79
2023/06/29 02:18:11;;;;;;;4.80;3.58;;;;;;;;;;5054739;28;20053;-78
2023/06/29 02:20:38;;;;;;;4.43;3.35;;;;;;;;;;5053037;28;20080;-78
2023/06/29 02:23:04;;;;;;;5.47;3.30;;;;;;;;;;5054148;28;20045;-79
2023/06/29 02:25:31;;;;;;;5.05;3.35;;;;;;;;;;5053281;28;20049;-79
2023/06/29 02:27:57;;;;;;;5.63;3.35;;;;;;;;;;5053065;28;20492;-79
2023/06/29 02:30:24;;;;;;;8.38;4.03;;;;;;;;;;5053860;28;20049;-79
2023/06/29 02:32:50;;;;;;;8.25;3.65;;;;;;;;;;5055143;28;20055;-79
2023/06/29 02:35:18;;;;;;;5.30;3.28;;;;;;;;;;5055535;28;20047;-80
2023/06/29 02:37:45;;;;;;;5.03;3.20;;;;;;;;;;5063956;28;20047;-79
2023/06/29 02:40:12;;;;;;;4.13;3.10;;;;;;;;;;5073450;28;20036;-79
2023/06/29 02:42:39;;;;;;;7.53;4.20;;;;;;;;;;5052888;28;20047;-79
2023/06/29 02:45:07;;;;;;;5.45;3.90;;;;;;;;;;5056260;28;20049;-79
2023/06/29 02:47:34;;;;;;;4.85;3.42;;;;;;;;;;5065286;28;20045;-78
2023/06/29 02:50:01;;;;;;;6.72;3.67;;;;;;;;;;5065341;28;20075;-80
2023/06/29 02:52:29;;;;;;;4.57;3.20;;;;;;;;;;5057016;28;20037;-79
2023/06/29 02:54:55;;;;;;;5.60;3.45;;;;;;;;;;5052667;28;20080;-79
2023/06/29 02:57:22;;;;;;;5.03;3.38;;;;;;;;;;5053265;28;20127;-80
2023/06/29 02:59:48;;;;;;;6.30;3.65;;;;;;;;;;5052340;28;20138;-78
2023/06/29 03:02:15;;;;;;;7.15;3.92;;;;;;;;;;5052414;28;20049;-77
2023/06/29 03:04:42;;;;;;;6.22;3.67;;;;;;;;;;5051929;28;20049;-77
2023/06/29 03:07:09;;;;;;;5.75;3.78;;;;;;;;;;5052858;28;20060;-78
2023/06/29 03:09:37;;;;;;;5.32;3.28;;;;;;;;;;5052399;28;20088;-78
2023/06/29 03:12:04;;;;;;;7.55;3.60;;;;;;;;;;5053257;28;20053;-77
2023/06/29 03:14:30;;;;;;;5.70;3.40;;;;;;;;;;5059006;28;20044;-77
2023/06/29 03:16:57;;;;;;;7.30;3.53;;;;;;;;;;5056466;28;20131;-77
2023/06/29 03:19:23;;;;;;;7.00;4.03;;;;;;;;;;5051726;28;20087;-79
2023/06/29 03:21:50;;;;;;;5.35;3.72;;;;;;;;;;5052142;28;20053;-78
2023/06/29 03:24:17;;;;;;;6.07;3.50;;;;;;;;;;5051318;28;20052;-79
2023/06/29 03:26:45;;;;;;;5.20;3.35;;;;;;;;;;5053774;28;20125;-78
2023/06/29 03:29:11;;;;;;;5.45;3.65;;;;;;;;;;5055025;28;20108;-80
2023/06/29 03:31:38;;;;;;;5.57;3.38;;;;;;;;;;5054586;28;20802;-79
2023/06/29 03:34:04;;;;;;;6.18;3.38;;;;;;;;;;5054428;28;20075;-79
2023/06/29 03:36:31;;;;;;;5.38;3.38;;;;;;;;;;5055179;28;20105;-80
2023/06/29 03:38:58;;;;;;;5.88;4.63;;;;;;;;;;5055084;28;20049;-80
2023/06/29 03:41:24;;;;;;;5.28;4.20;;;;;;;;;;5058571;28;20108;-79
2023/06/29 03:43:52;;;;;;;6.38;4.72;;;;;;;;;;5076543;28;20060;-79
2023/06/29 03:46:19;;;;;;;7.45;4.85;;;;;;;;;;5076383;28;20487;-79
2023/06/29 03:48:45;;;;;;;5.65;4.45;;;;;;;;;;5064814;28;20534;-79
2023/06/29 03:51:12;;;;;;;7.32;4.57;;;;;;;;;;5059900;28;20045;-80
2023/06/29 03:53:39;;;;;;;5.78;4.15;;;;;;;;;;5054905;28;20041;-80
2023/06/29 03:56:05;;;;;;;6.47;4.20;;;;;;;;;;5050777;28;20060;-78
2023/06/29 03:58:32;;;;;;;5.60;3.90;;;;;;;;;;5052014;28;20045;-79
2023/06/29 04:01:00;;;;;;;5.35;4.05;;;;;;;;;;5050454;28;20044;-79
2023/06/29 04:03:26;;;;;;;6.07;3.78;;;;;;;;;;5050496;28;20135;-78
2023/06/29 04:05:53;;;;;;;5.43;3.17;;;;;;;;;;5050157;28;20109;-80
2023/06/29 04:08:20;;;;;;;4.80;3.20;;;;;;;;;;5049502;28;20128;-79
2023/06/29 04:10:46;;;;;;;6.80;3.60;;;;;;;;;;5050377;28;20041;-78
2023/06/29 04:13:13;;;;;;;4.60;3.22;;;;;;;;;;5050982;28;20063;-79
2023/06/29 04:15:39;;;;;;;4.85;3.40;;;;;;;;;;5050192;28;20051;-79
2023/06/29 04:18:07;;;;;;;4.50;3.38;;;;;;;;;;5051045;28;20041;-78
2023/06/29 04:20:34;;;;;;;5.30;3.33;;;;;;;;;;5049509;28;20083;-79
2023/06/29 04:23:01;;;;;;;5.72;3.40;;;;;;;;;;5051354;28;20044;-80
2023/06/29 04:25:27;;;;;;;5.78;3.00;;;;;;;;;;5050979;28;20047;-80
2023/06/29 04:27:54;;;;;;;6.80;3.25;;;;;;;;;;5051446;28;20045;-79
2023/06/29 04:30:21;;;;;;;4.80;3.00;;;;;;;;;;5051249;28;20045;-79
2023/06/29 04:32:47;;;;;;;5.75;3.30;;;;;;;;;;5051116;28;20049;-80
2023/06/29 04:35:15;;;;;;;5.35;3.47;;;;;;;;;;5050891;28;20286;-80
2023/06/29 04:37:42;;;;;;;5.18;3.38;;;;;;;;;;5050767;28;20112;-80
2023/06/29 04:40:10;;;;;;;5.75;3.10;;;;;;;;;;5050755;28;20048;-79
2023/06/29 04:42:43;;;;;;;6.10;3.30;;;;;;;;;;5051049;28;20140;-78
2023/06/29 04:45:17;;;;;;;6.18;3.42;;;;;;;;;;5050390;28;20045;-79
2023/06/29 04:47:44;;;;;;;5.10;3.33;;;;;;;;;;5051318;28;20045;-80
2023/06/29 04:50:11;;;;;;;6.15;3.40;;;;;;;;;;5050741;28;20049;-80
2023/06/29 04:52:40;;;;;;;6.15;2.90;;;;;;;;;;5051405;28;20120;-79
2023/06/29 04:55:08;;;;;;;6.15;3.60;;;;;;;;;;5050504;28;20460;-79
2023/06/29 04:57:35;;;;;;;5.72;3.33;;;;;;;;;;5050956;28;20072;-79
2023/06/29 05:00:03;;;;;;;5.63;3.50;;;;;;;;;;5050991;28;20041;-79
2023/06/29 05:02:30;;;;;;;5.90;3.50;;;;;;;;;;5053218;28;20106;-79
2023/06/29 05:04:57;;;;;;;5.53;3.50;;;;;;;;;;5052367;28;20045;-80
2023/06/29 05:07:23;;;;;;;6.55;3.47;;;;;;;;;;5051564;28;20140;-80
2023/06/29 05:09:51;;;;;;;5.35;3.20;;;;;;;;;;5052565;28;20072;-79
2023/06/29 05:12:18;;;;;;;4.95;2.88;;;;;;;;;;5052193;28;20049;-79
2023/06/29 05:14:44;;;;;;;5.28;3.95;;;;;;;;;;5052518;28;20124;-79
2023/06/29 05:17:11;;;;;;;5.78;3.20;;;;;;;;;;5052723;28;20523;-80
2023/06/29 05:19:38;;;;;;;5.85;3.67;;;;;;;;;;5053008;28;20171;-79
2023/06/29 05:22:05;;;;;;;5.05;2.95;;;;;;;;;;5057028;28;20084;-80
2023/06/29 05:24:32;;;;;;;5.57;3.05;;;;;;;;;;5060550;28;20076;-80
2023/06/29 05:27:00;;;;;;;6.18;3.85;;;;;;;;;;5054895;28;20132;-80
2023/06/29 05:29:26;;;;;;;6.97;3.42;;;;;;;;;;5053775;28;20045;-80
2023/06/29 05:31:53;;;;;;;6.25;3.38;;;;;;;;;;5054723;28;20065;-79
2023/06/29 05:34:20;;;;;;;5.47;3.42;;;;;;;;;;5052106;28;20068;-79
2023/06/29 05:36:46;;;;;;;5.80;3.60;;;;;;;;;;5053975;28;20411;-79
2023/06/29 05:39:13;;;;;;;5.28;3.00;;;;;;;;;;5054563;28;20069;-80
2023/06/29 05:41:39;;;;;;;6.88;3.58;;;;;;;;;;5055487;28;20120;-78
2023/06/29 05:44:08;;;;;;;5.90;3.15;;;;;;;;;;5053814;28;20113;-79
2023/06/29 05:46:35;;;;;;;4.97;3.25;;;;;;;;;;5053199;28;20113;-80
2023/06/29 05:49:02;;;;;;;7.07;3.30;;;;;;;;;;5053490;28;20037;-80
2023/06/29 05:51:29;;;;;;;5.53;3.17;;;;;;;;;;5053291;28;20108;-79
2023/06/29 05:53:56;;;;;;;10.45;3.60;;;;;;;;;;5052828;28;20060;-79
2023/06/29 05:56:22;;;;;;;5.32;3.28;;;;;;;;;;5055024;28;20045;-80
2023/06/29 05:58:49;;;;;;;5.50;3.38;;;;;;;;;;5053233;28;20041;-78
2023/06/29 06:01:17;;;;;;;5.88;3.30;;;;;;;;;;5052332;28;20040;-80
2023/06/29 06:03:44;;;;;;;6.18;3.50;;;;;;;;;;5055211;28;20064;-79
2023/06/29 06:06:10;;;;;;;4.90;2.92;;;;;;;;;;5055569;28;20484;-80
2023/06/29 06:08:37;;;;;;;5.32;3.13;;;;;;;;;;5055366;28;20045;-78
2023/06/29 06:11:04;;;;;;;6.82;3.53;;;;;;;;;;5055580;28;20381;-80
2023/06/29 06:13:30;;;;;;;7.28;3.47;;;;;;;;;;5058940;28;20396;-79
2023/06/29 06:15:57;;;;;;;5.40;2.97;;;;;;;;;;5055954;28;20049;-79
2023/06/29 06:18:25;;;;;;;6.00;3.47;;;;;;;;;;5054116;28;20051;-80
2023/06/29 06:20:52;;;;;;;5.25;3.28;;;;;;;;;;5055304;28;20041;-79
2023/06/29 06:23:20;;;;;;;5.35;3.08;;;;;;;;;;5053282;28;20045;-79
2023/06/29 06:25:46;;;;;;;7.22;2.95;;;;;;;;;;5052891;28;20069;-80
2023/06/29 06:28:13;;;;;;;6.05;3.45;;;;;;;;;;5054344;28;20051;-79
2023/06/29 06:30:39;;;;;;;5.22;2.90;;;;;;;;;;5055437;28;20124;-79
2023/06/29 06:33:06;;;;;;;6.03;2.90;;;;;;;;;;5053643;28;20124;-79
2023/06/29 06:35:34;;;;;;;4.63;2.55;;;;;;;;;;5057921;28;20085;-80
2023/06/29 06:38:00;;;;;;;4.95;2.95;;;;;;;;;;5054786;28;20479;-78
2023/06/29 06:40:27;;;;;;;5.57;3.00;;;;;;;;;;5054670;28;20128;-79
2023/06/29 06:42:54;;;;;;;5.72;3.13;;;;;;;;;;5055044;28;20088;-80
2023/06/29 06:45:20;;;;;;;5.30;2.90;;;;;;;;;;5055081;28;20139;-80
2023/06/29 06:47:47;;;;;;;4.90;2.90;;;;;;;;;;5055444;28;20072;-80
2023/06/29 06:50:13;;;;;;;5.05;3.50;;;;;;;;;;5054696;28;20484;-79
2023/06/29 06:52:42;;;;;;;4.63;2.65;;;;;;;;;;5055928;28;20424;-80
2023/06/29 06:55:08;;;;;;;5.43;2.90;;;;;;;;;;5057871;28;20521;-80
2023/06/29 06:57:36;;;;;;;6.53;3.80;;;;;;;;;;5066531;22;20123;-78
2023/06/29 07:00:10;;;;;;;6.57;3.45;;;;;;;;;;5045820;28;20080;-77
2023/06/29 07:02:37;;;;;;;5.53;2.92;;;;;;;;;;5035825;28;20049;-78
2023/06/29 07:05:05;;;;;;;6.13;3.00;;;;;;;;;;5043050;28;20064;-78
2023/06/29 07:07:31;;;;;;;6.93;3.05;;;;;;;;;;5038900;28;20048;-78
2023/06/29 07:09:59;;;;;;;4.95;2.83;;;;;;;;;;5052191;28;20127;-78
2023/06/29 07:12:26;;;;;;;5.70;2.97;;;;;;;;;;5061389;28;20104;-78
2023/06/29 07:14:52;;;;;;;4.70;2.90;;;;;;;;;;5055602;28;20047;-77
2023/06/29 07:17:19;;;;;;;5.10;2.70;;;;;;;;;;5056441;28;20135;-79
2023/06/29 07:19:46;;;;;;;5.00;2.80;;;;;;;;;;5051187;28;20099;-77
2023/06/29 07:22:12;;;;;;;9.18;4.07;;;;;;;;;;5059150;28;20072;-77
2023/06/29 07:24:39;;;;;;;6.07;3.20;;;;;;;;;;5057836;28;20044;-77
2023/06/29 07:27:09;;;;;;;8.38;3.05;;;;;;;;;;5061914;28;20045;-78
2023/06/29 07:29:42;;;;;;;5.13;2.90;;;;;;;;;;5052504;28;20067;-79
2023/06/29 07:32:09;;;;;;;5.60;3.10;;;;;;;;;;5063477;28;20041;-78
2023/06/29 07:34:36;;;;;;;6.32;2.85;;;;;;;;;;5056876;28;20049;-77
2023/06/29 07:37:03;;;;;;;4.47;2.72;;;;;;;;;;5055137;28;20044;-77
2023/06/29 07:39:30;;;;;;;6.03;2.97;;;;;;;;;;5054256;28;20052;-77
2023/06/29 07:41:57;;;;;;;4.40;2.60;;;;;;;;;;5054577;28;20049;-76
2023/06/29 07:44:25;;;;;;;4.47;2.60;;;;;;;;;;5067169;28;20049;-77
2023/06/29 07:46:51;;;;;;;4.00;2.20;;;;;;;;;;5074157;28;20080;-75
2023/06/29 07:49:18;;;;;;;5.47;2.42;;;;;;;;;;5075334;28;20052;-77
2023/06/29 07:51:45;;;;;;;5.00;2.33;;;;;;;;;;5075278;28;20048;-78
2023/06/29 07:54:12;;;;;;;8.13;3.00;;;;;;;;;;5075340;28;20052;-78
2023/06/29 07:56:39;;;;;;;3.92;2.35;;;;;;;;;;5075471;28;20059;-78
2023/06/29 07:59:05;;;;;;;7.07;2.80;;;;;;;;;;5076233;28;20116;-78
2023/06/29 08:01:36;;;;;;;3.70;2.38;;;;;;;;;;5077365;28;20044;-78
2023/06/29 08:04:04;;;;;;;4.50;2.55;;;;;;;;;;5062280;28;20049;-78
2023/06/29 08:06:31;;;;;;;5.07;2.40;;;;;;;;;;5054066;28;20049;-78
2023/06/29 08:08:58;;;;;;;8.38;3.08;;;;;;;;;;5053736;28;20045;-78
2023/06/29 08:11:36;;;;;;;4.38;2.22;;;;;;;;;;5058400;28;20479;-79
2023/06/29 08:14:03;;;;;;;5.07;2.60;;;;;;;;;;5062268;28;20067;-79
2023/06/29 08:16:31;;;;;;;4.55;2.38;;;;;;;;;;5065074;28;20044;-79
2023/06/29 08:19:00;;;;;;;4.68;2.40;;;;;;;;;;5065330;28;20170;-79
2023/06/29 08:21:35;;;;;;;6.25;3.00;;;;;;;;;;5078510;28;20114;-79
2023/06/29 08:24:06;;;;;;;4.13;2.55;;;;;;;;;;5078961;28;20044;-80
2023/06/29 08:26:34;;;;;;;4.63;2.50;;;;;;;;;;5080309;28;20048;-78
2023/06/29 08:29:01;;;;;;;7.45;2.75;;;;;;;;;;5081343;28;20048;-78
2023/06/29 08:31:32;;;;;;;5.35;2.50;;;;;;;;;;5073346;28;20067;-83
2023/06/29 08:34:00;;;;;;;5.15;2.65;;;;;;;;;;5074036;28;20048;-78
2023/06/29 08:36:29;;;;;;;5.35;2.50;;;;;;;;;;5076722;28;20052;-78
2023/06/29 08:39:05;;;;;;;5.83;3.23;;;;;;;;;;5073778;28;20535;-79
2023/06/29 08:41:34;;;;;;;4.43;2.30;;;;;;;;;;5071406;28;20316;-79
2023/06/29 08:44:04;;;;;;;5.25;2.45;;;;;;;;;;5058755;28;20128;-78
2023/06/29 08:46:33;;;;;;;5.28;2.83;;;;;;;;;;5074114;28;20123;-77
2023/06/29 08:49:01;;;;;;;5.55;3.22;;;;;;;;;;5069581;28;20494;-76
2023/06/29 08:51:29;;;;;;;5.38;3.00;;;;;;;;;;5064385;28;20049;-76
2023/06/29 08:53:59;;;;;;;5.50;2.80;;;;;;;;;;5052155;28;20053;-78
2023/06/29 08:56:26;;;;;;;;;;;;;;;;;;5054386;28;20083;-77
2023/06/29 08:58:53;;;;;;;4.40;2.22;;;;;;;;;;5056527;28;19929;-77
2023/06/29 09:01:20;;;;;;;5.93;2.40;;;;;;;;;;5057664;28;20045;-83
2023/06/29 09:03:50;;;;;;;4.22;2.50;;;;;;;;;;5054976;28;20045;-79
2023/06/29 09:06:18;;;;;;;5.45;2.55;;;;;;;;;;5055456;28;20045;-79
2023/06/29 09:08:45;;;;;;;5.03;2.35;;;;;;;;;;5054344;28;20448;-79
2023/06/29 09:11:12;;;;;;;4.78;2.63;;;;;;;;;;5062912;28;20053;-79
2023/06/29 09:13:39;;;;;;;7.68;3.85;;;;;;;;;;5055523;28;20045;-83
2023/06/29 09:16:06;;;;;;;20.02;7.60;;;;;;;;;;5067026;28;20112;-79
2023/06/29 09:18:34;;;;;;;8.13;2.70;;;;;;;;;;5072018;28;20143;-79
2023/06/29 09:21:01;;;;;;;5.97;3.08;;;;;;;;;;5075281;28;20170;-79
2023/06/29 09:23:30;;;;;;;3.95;2.50;;;;;;;;;;5076024;28;20480;-79
2023/06/29 09:25:57;;;;;;;5.07;2.40;;;;;;;;;;5075892;28;20094;-78
2023/06/29 09:28:27;;;;;;;5.93;2.63;;;;;;;;;;5076338;28;20090;-79
2023/06/29 09:30:54;;;;;;;6.00;4.20;;;;;;;;;;5075614;28;20045;-79
2023/06/29 09:33:28;;;;;;;5.20;2.97;;;;;;;;;;5077197;28;20075;-81
2023/06/29 09:35:55;;;;;;;4.78;2.20;;;;;;;;;;5076326;28;20067;-80
2023/06/29 09:38:23;;;;;;;4.30;2.20;;;;;;;;;;5079270;28;20048;-79
2023/06/29 09:40:53;;;;;;;4.80;2.40;;;;;;;;;;5078498;28;20128;-79
2023/06/29 09:43:21;;;;;;;4.25;2.45;;;;;;;;;;5080334;28;20044;-79
2023/06/29 09:45:48;;;;;;;4.65;2.60;;;;;;;;;;5079608;28;20049;-79
2023/06/29 09:48:15;;;;;;;4.63;2.10;;;;;;;;;;5079768;28;20040;-79
2023/06/29 09:50:49;;;;;;;5.45;2.55;;;;;;;;;;5079954;28;20075;-80
2023/06/29 09:53:16;;;;;;;4.97;2.67;;;;;;;;;;5075222;28;20049;-80
2023/06/29 09:55:44;;;;;;;3.85;2.50;;;;;;;;;;5073677;28;20071;-79
2023/06/29 09:58:13;;;;;;;4.93;2.47;;;;;;;;;;5073276;28;20070;-79
2023/06/29 10:00:41;;;;;;;4.65;2.33;;;;;;;;;;5080018;28;20050;-80
2023/06/29 10:03:08;;;;;;;3.92;2.13;;;;;;;;;;5079374;28;20044;-80
2023/06/29 10:05:35;;;;;;;4.53;2.30;;;;;;;;;;5061945;28;20045;-80
2023/06/29 10:08:07;;;;;;;3.30;2.20;;;;;;;;;;5060189;28;20060;-79
2023/06/29 10:10:35;;;;;;;5.10;2.50;;;;;;;;;;5059458;28;20045;-80
2023/06/29 10:13:05;;;;;;;3.65;2.17;;;;;;;;;;5058236;28;20455;-78
2023/06/29 10:15:36;;;;;;;6.60;2.35;;;;;;;;;;5058872;28;20041;-79
2023/06/29 10:18:07;;;;;;;4.85;2.50;;;;;;;;;;5075780;28;20422;-78
2023/06/29 10:20:37;;;;;;;4.72;2.20;;;;;;;;;;5073134;28;20072;-79
2023/06/29 10:23:06;;;;;;;4.07;2.53;;;;;;;;;;5079480;28;20075;-78
2023/06/29 10:25:37;;;;;;;3.97;2.47;;;;;;;;;;5074108;28;20102;-78
2023/06/29 10:28:05;;;;;;;5.18;2.60;;;;;;;;;;5060726;28;20084;-79
2023/06/29 10:30:46;;;;;;;4.10;2.38;;;;;;;;;;5060700;28;20075;-79
2023/06/29 10:33:12;;;;;;;5.40;2.30;;;;;;;;;;5059606;28;20048;-78
2023/06/29 10:35:40;;;;;;;3.28;2.20;;;;;;;;;;5058093;28;20045;-79
2023/06/29 10:38:12;;;;;;;5.65;2.80;;;;;;;;;;5067167;28;20541;-79
2023/06/29 10:40:46;;;;;;;5.63;2.55;;;;;;;;;;5080221;28;20053;-80
2023/06/29 10:43:13;;;;;;;6.90;2.97;;;;;;;;;;5078990;28;20128;-78
2023/06/29 10:45:40;;;;;;;5.13;2.30;;;;;;;;;;5076757;28;20048;-78
2023/06/29 10:48:10;;;;;;;5.10;2.58;;;;;;;;;;5075765;28;20045;-78
2023/06/29 10:50:40;;;;;;;4.32;2.40;;;;;;;;;;5074994;28;20498;-78
2023/06/29 10:53:09;;;;;;;4.25;2.30;;;;;;;;;;5069753;28;20067;-78
2023/06/29 10:55:41;;;;;;;4.80;2.80;;;;;;;;;;5076321;28;20049;-77
2023/06/29 10:58:14;;;;;;;4.45;2.60;;;;;;;;;;5076016;28;20106;-78
2023/06/29 11:00:41;;;;;;;5.20;2.30;;;;;;;;;;5077280;28;20052;-78
2023/06/29 11:03:11;;;;;;;3.95;2.50;;;;;;;;;;5076133;28;20068;-80
2023/06/29 11:05:38;;;;;;;6.40;2.45;;;;;;;;;;5059467;28;20041;-80
2023/06/29 11:08:07;;;;;;;5.60;2.63;;;;;;;;;;5059888;28;20118;-79
2023/06/29 11:10:34;;;;;;;4.00;2.22;;;;;;;;;;5062791;28;20068;-79
2023/06/29 11:13:00;;;;;;;4.35;2.47;;;;;;;;;;5078360;28;20048;-79
2023/06/29 11:15:28;;;;;;;4.28;2.25;;;;;;;;;;5078507;28;20127;-79
2023/06/29 11:17:55;;;;;;;3.63;2.30;;;;;;;;;;5078631;28;20045;-79
2023/06/29 11:20:28;;;;;;;3.70;2.30;;;;;;;;;;5078824;28;20131;-79
2023/06/29 11:22:57;;;;;;;4.32;2.47;;;;;;;;;;5058273;28;20048;-80
2023/06/29 11:25:25;;;;;;;5.50;2.58;;;;;;;;;;5060243;28;20045;-80
2023/06/29 11:27:53;;;;;;;5.88;2.53;;;;;;;;;;5060709;28;20411;-81
2023/06/29 11:30:20;;;;;;;3.55;2.30;;;;;;;;;;5057959;28;20053;-80
2023/06/29 11:32:49;;;;;;;4.40;2.30;;;;;;;;;;5036254;28;20048;-80
2023/06/29 11:35:16;;;;;;;4.05;2.42;;;;;;;;;;5036421;28;20121;-78
2023/06/29 11:37:44;;;;;;;5.78;2.58;;;;;;;;;;5047535;28;20136;-80
2023/06/29 11:40:19;;;;;;;23.30;5.22;;;;;;;;;;5056865;28;20051;-80
2023/06/29 11:42:46;;;;;;;7.57;2.90;;;;;;;;;;5058234;28;20048;-80
2023/06/29 11:45:14;;;;;;;3.97;2.28;;;;;;;;;;5057190;28;20076;-79
2023/06/29 11:47:41;;;;;;;5.20;2.78;;;;;;;;;;5064740;28;20105;-79
2023/06/29 11:50:10;;;;;;;5.05;2.70;;;;;;;;;;5061606;28;20092;-78
2023/06/29 11:52:39;;;;;;;3.97;2.50;;;;;;;;;;5066732;28;20048;-79
2023/06/29 11:55:10;;;;;;;4.03;2.45;;;;;;;;;;5077731;28;20499;-79
2023/06/29 11:57:40;;;;;;;7.90;2.55;;;;;;;;;;5075588;28;20053;-79
2023/06/29 12:00:28;;;;;;;5.35;2.35;;;;;;;;;;5065150;28;20472;-77
2023/06/29 12:02:56;;;;;;;6.78;2.75;;;;;;;;;;5070856;28;20415;-78
2023/06/29 12:05:27;;;;;;;5.88;2.50;;;;;;;;;;5067737;28;20062;-79
2023/06/29 12:07:53;;;;;;;5.13;3.15;;;;;;;;;;5062576;28;20104;-78
2023/06/29 12:10:25;;;;;;;5.18;2.55;;;;;;;;;;5076584;28;20045;-79
2023/06/29 12:12:55;;;;;;;5.70;2.70;;;;;;;;;;5064547;28;20128;-79
2023/06/29 12:15:24;;;;;;;5.70;2.58;;;;;;;;;;5068617;28;20197;-80
2023/06/29 12:17:53;;;;;;;3.55;2.20;;;;;;;;;;5078184;28;20051;-79
2023/06/29 12:20:20;;;;;;;5.35;2.65;;;;;;;;;;5075663;28;20388;-78
2023/06/29 12:22:49;;;;;;;4.85;2.58;;;;;;;;;;5067040;28;20052;-78
2023/06/29 12:25:17;;;;;;;5.53;2.80;;;;;;;;;;5067648;28;20083;-79
2023/06/29 12:27:47;;;;;;;8.90;3.10;;;;;;;;;;5061484;28;20136;-79
2023/06/29 12:30:20;;;;;;;31.90;7.03;;;;;;;;;;5063438;28;20041;-79
2023/06/29 12:32:47;;;;;;;11.80;3.83;;;;;;;;;;5065865;28;20473;-80
2023/06/29 12:35:15;;;;;;;4.97;2.53;;;;;;;;;;5066232;28;20053;-78
2023/06/29 12:37:42;;;;;;;4.97;2.40;;;;;;;;;;5070145;28;20049;-79
2023/06/29 12:40:09;;;;;;;4.22;2.60;;;;;;;;;;5068199;28;20044;-78
2023/06/29 12:42:37;;;;;;;5.22;2.90;;;;;;;;;;5064632;28;20472;-78
2023/06/29 12:45:07;;;;;;;4.55;2.33;;;;;;;;;;5066011;28;20110;-80
2023/06/29 12:47:34;;;;;;;5.10;2.60;;;;;;;;;;5075224;28;20422;-79
2023/06/29 12:50:02;;;;;;;5.82;2.50;;;;;;;;;;5062611;28;20123;-79
2023/06/29 12:52:28;;;;;;;5.28;2.47;;;;;;;;;;5077044;28;20083;-79
2023/06/29 12:54:58;;;;;;;4.45;2.70;;;;;;;;;;5076684;28;20060;-79
2023/06/29 12:57:28;;;;;;;8.90;3.40;;;;;;;;;;5075473;28;20458;-79
2023/06/29 12:59:55;;;;;;;4.63;2.30;;;;;;;;;;5065076;28;20045;-78
2023/06/29 13:02:27;;;;;;;5.00;2.53;;;;;;;;;;5056990;28;20484;-80
2023/06/29 13:04:54;;;;;;;4.15;2.40;;;;;;;;;;5058094;28;20516;-80
2023/06/29 13:07:23;;;;;;;3.95;2.20;;;;;;;;;;5056829;28;20124;-80
2023/06/29 13:09:51;;;;;;;3.73;2.47;;;;;;;;;;5066413;28;20072;-81
2023/06/29 13:12:20;;;;;;;4.65;2.67;;;;;;;;;;5072267;28;20048;-81
2023/06/29 13:14:49;;;;;;;4.05;2.60;;;;;;;;;;5068845;28;20044;-78
2023/06/29 13:17:18;;;;;;;3.85;2.30;;;;;;;;;;5066166;28;20415;-81
2023/06/29 13:19:48;;;;;;;5.20;2.60;;;;;;;;;;5071717;28;20109;-79
2023/06/29 13:22:18;;;;;;;6.07;2.50;;;;;;;;;;5057961;28;20056;-79
2023/06/29 13:24:44;;;;;;;;;;;;;;;;;;5073635;28;20045;-78
2023/06/29 13:27:11;;;;;;;4.72;2.90;;;;;;;;;;5068965;28;19943;-78
2023/06/29 13:29:38;;;;;;;5.05;2.60;;;;;;;;;;5061278;28;20056;-82
2023/06/29 13:32:05;;;;;;;5.78;2.75;;;;;;;;;;5060897;28;20489;-79
2023/06/29 13:34:32;;;;;;;3.85;2.58;;;;;;;;;;5079879;28;20062;-79
2023/06/29 13:37:00;;;;;;;3.60;2.40;;;;;;;;;;5078228;28;20047;-79
2023/06/29 13:39:27;;;;;;;3.92;2.30;;;;;;;;;;5066201;28;20121;-80
2023/06/29 13:41:54;;;;;;;3.92;2.60;;;;;;;;;;5078818;28;20040;-80
2023/06/29 13:44:20;;;;;;;5.15;2.58;;;;;;;;;;5076164;28;20105;-79
2023/06/29 13:46:47;;;;;;;7.47;2.92;;;;;;;;;;5058777;28;20052;-79
2023/06/29 13:49:16;;;;;;;6.38;2.63;;;;;;;;;;5058676;28;20133;-80
2023/06/29 13:51:43;;;;;;;5.22;3.20;;;;;;;;;;5076375;28;20055;-81
2023/06/29 13:54:11;;;;;;;3.63;2.50;;;;;;;;;;5077046;28;20567;-80
2023/06/29 13:56:38;;;;;;;4.38;2.90;;;;;;;;;;5076619;28;20509;-79
2023/06/29 13:59:08;;;;;;;5.43;2.35;;;;;;;;;;5078306;28;20055;-79
2023/06/29 14:01:36;;;;;;;5.45;3.05;;;;;;;;;;5076889;28;20495;-79
2023/06/29 14:04:03;;;;;;;3.42;2.20;;;;;;;;;;5064432;28;20076;-80
2023/06/29 14:06:32;;;;;;;4.75;2.47;;;;;;;;;;5057122;28;20132;-78
2023/06/29 14:08:59;;;;;;;4.10;2.20;;;;;;;;;;5064970;28;20103;-79
2023/06/29 14:11:28;;;;;;;4.28;2.20;;;;;;;;;;5087389;28;20041;-79
2023/06/29 14:13:55;;;;;;;4.68;2.60;;;;;;;;;;5096004;28;20063;-79
2023/06/29 14:16:22;;;;;;;5.68;2.63;;;;;;;;;;5080457;28;20055;-79
2023/06/29 14:18:49;;;;;;;4.43;2.33;;;;;;;;;;5070312;28;20056;-80
2023/06/29 14:21:16;;;;;;;15.43;11.05;;;;;;;;;;5059183;28;20091;-79
2023/06/29 14:23:43;;;;;;;4.68;2.50;;;;;;;;;;5070839;28;20478;-80
2023/06/29 14:26:10;;;;;;;4.28;2.80;;;;;;;;;;5063120;28;20075;-79
2023/06/29 14:28:38;;;;;;;3.75;2.40;;;;;;;;;;5073682;28;20133;-79
2023/06/29 14:31:05;;;;;;;5.28;2.53;;;;;;;;;;5066225;28;20097;-79
2023/06/29 14:33:33;;;;;;;3.67;2.10;;;;;;;;;;5071726;28;20048;-80
2023/06/29 14:36:00;;;;;;;5.10;2.10;;;;;;;;;;5073906;28;20045;-80
2023/06/29 14:38:26;;;;;;;4.13;2.30;;;;;;;;;;5064461;28;20040;-81
2023/06/29 14:44:16;;;;;;;3.70;2.38;;;;;;;;;;5050319;28;20106;-80
2023/06/29 14:46:43;;;;;;;4.05;2.25;;;;;;;;;;5066261;28;20040;-80
2023/06/29 14:49:09;;;;;;;3.60;1.92;;;;;;;;;;5065962;28;20036;-80